Airfield :
LOGIN :

Register | Disclaimer

   EN    FR    IT 

 










Legend :    VFR   Marginal VFR   IFR   Intensive IFR   Very Intensive IFR
Visi :
Ceiling :
>= 8 km
>= 3000ft
5 to 8 km
1000 to 3000 ft
1500m to 5 km
500 to 1000 ft
800 to 1500m
200 to 500 ft
< 800m
< 200 ft
Symbols :   Thunderstorms  Fog  Heavy snow  Heavy precipitations  Wind > 20 kt
SIGMETs :     Misc.  Thunderstorms  Icing  Turbulence  Mountain Waves  Volcanic Ashes






- Airport Elevation : 63 ft
- IATA code : BZM


EHWO - Woensdrecht Airbase

CURRENT METAR :
  • 231725Z AUTO 30012KT 230V360 9999 SCT056 OVC140 09/05 Q1017 BLU

EXPIRED METARs :
  • 231655Z AUTO 29013KT 210V330 9999 FEW029 OVC050 09/06 Q1016 BLU
  • 231625Z AUTO 29011KT 240V360 9999 FEW022 SCT026 BKN031 10/07 Q1016 BLU
  • 231612Z AUTO 28010KT 240V360 9999 SCT028 BKN032 BKN041 10/08 Q1015 BLU
  • 231556Z AUTO 29013KT 250V350 9999 FEW012 BKN029 OVC037 10/09 Q1015 BLU
  • 231555Z AUTO 29014KT 240V330 9999 FEW011 SCT014 BKN029 10/09 Q1015 GRN
  • 231538Z AUTO 28016KT 230V310 9999 FEW011 SCT033 BKN041 11/10 Q1014 BLU
  • 231525Z AUTO 27020KT 220V310 7000 DZRA FEW009 SCT011 BKN014 11/10 Q1014 GRN
  • 231507Z AUTO 27023KT 230V310 8000 DZ FEW008 SCT009 BKN011 FEW015CB 11/10 Q1013 GRN
  • 231455Z AUTO 27025G38KT 230V310 7000 DZ FEW002 BKN010 BKN014 FEW015CB 11/10 Q1013 GRN

Expired Forecast.



MET'MAP, your aeronautical weather chart ! - Copyright ORBIFLY December 2007 - Disclaimer

ORBIFLY MET'MAP TEAM :

Programming & Development : Alexandra Zaïnal
Concept & original design : Baudouin d'Aumeries
Assistance for programming : Marc-Olivier Méhu
Technical & hardware support : Manuel Goepfert

Contact : metmap@orbifly.com




SOURCES & CREDITS :

   NOAA